createdAt,value
2023-03-10T00:00:04.057Z,99028.09
2023-03-10T00:02:34.356Z,99037.88
2023-03-10T00:05:03.542Z,99038.62
2023-03-10T00:07:30.211Z,99038.27
2023-03-10T00:09:56.843Z,99032.95
2023-03-10T00:12:27.048Z,99031.13
2023-03-10T00:14:54.616Z,99028.68
2023-03-10T00:17:21.448Z,99028.05
2023-03-10T00:19:47.988Z,99030.88
2023-03-10T00:22:14.590Z,99031.16
2023-03-10T00:24:44.432Z,99026.52
2023-03-10T00:27:11.373Z,99025.52
2023-03-10T00:29:38.152Z,99025.91
2023-03-10T00:32:05.016Z,99027.89
2023-03-10T00:34:32.019Z,99027.73
2023-03-10T00:37:00.361Z,99018.14
2023-03-10T00:39:29.909Z,99014.70
2023-03-10T00:41:56.464Z,99016.52
2023-03-10T00:44:23.046Z,99013.29
2023-03-10T00:46:49.753Z,99012.73
2023-03-10T00:49:16.869Z,99012.22
2023-03-10T00:51:44.243Z,99013.73
2023-03-10T00:54:10.988Z,99015.51
2023-03-10T00:56:38.109Z,99017.33
2023-03-10T00:59:06.348Z,99017.71
2023-03-10T01:01:37.112Z,99016.70
2023-03-10T01:04:06.871Z,99019.58
2023-03-10T01:06:34.485Z,99019.77
2023-03-10T01:09:03.549Z,99011.89
2023-03-10T01:11:31.153Z,99003.45
2023-03-10T01:14:01.473Z,99003.34
2023-03-10T01:16:29.126Z,99002.29
2023-03-10T01:18:56.895Z,98996.43
2023-03-10T01:21:27.132Z,98993.83
2023-03-10T01:23:53.810Z,98990.59
2023-03-10T01:26:20.808Z,98989.34
2023-03-10T01:28:48.469Z,98987.39
2023-03-10T01:31:20.066Z,98982.83
2023-03-10T01:33:52.338Z,98982.13
2023-03-10T01:36:24.992Z,98980.92
2023-03-10T01:38:58.709Z,98977.67
2023-03-10T01:41:31.088Z,98978.91
2023-03-10T01:44:03.217Z,98972.11
2023-03-10T01:46:43.392Z,98968.48
2023-03-10T01:49:43.130Z,98959.29
2023-03-10T01:52:15.855Z,98954.55
2023-03-10T01:54:55.870Z,98959.42
2023-03-10T01:57:35.850Z,98967.65
2023-03-10T02:00:11.479Z,98976.48
2023-03-10T02:02:52.963Z,98980.10
2023-03-10T02:05:20.739Z,98980.35
2023-03-10T02:07:47.914Z,98980.46
2023-03-10T02:10:15.280Z,98978.52
2023-03-10T02:12:45.287Z,98983.09
2023-03-10T02:15:12.888Z,98980.65
2023-03-10T02:17:40.495Z,98981.52
2023-03-10T02:20:13.125Z,98979.20
2023-03-10T02:22:39.959Z,98976.30
2023-03-10T02:25:13.491Z,98972.86
2023-03-10T02:27:40.162Z,98976.48
2023-03-10T02:30:07.162Z,98975.42
2023-03-10T02:32:41.503Z,98971.64
2023-03-10T02:35:09.339Z,98969.17
2023-03-10T02:37:40.896Z,98968.35
2023-03-10T02:40:34.167Z,98963.66
2023-03-10T02:43:29.458Z,98960.52
2023-03-10T02:46:04.548Z,98963.06
2023-03-10T02:48:34.341Z,98966.52
2023-03-10T02:51:12.287Z,98964.41
2023-03-10T02:53:42.254Z,98966.36
2023-03-10T02:56:10.507Z,98964.70
2023-03-10T02:58:37.909Z,98965.49
2023-03-10T03:01:07.011Z,98961.08
2023-03-10T03:03:37.395Z,98959.17
2023-03-10T03:06:04.663Z,98955.44
2023-03-10T03:08:32.797Z,98957.91
2023-03-10T03:11:00.533Z,98962.14
2023-03-10T03:13:27.350Z,98962.20
2023-03-10T03:15:54.099Z,98961.23
2023-03-10T03:18:21.913Z,98962.73
2023-03-10T03:20:48.899Z,98961.10
2023-03-10T03:23:15.589Z,98956.79
2023-03-10T03:25:43.377Z,98955.10
2023-03-10T03:28:12.455Z,98957.56
2023-03-10T03:30:40.910Z,98953.02
2023-03-10T03:33:07.712Z,98954.71
2023-03-10T03:35:36.467Z,98955.52
2023-03-10T03:38:05.210Z,98955.58
2023-03-10T03:40:34.094Z,98956.83
2023-03-10T03:43:02.407Z,98954.38
2023-03-10T03:45:31.623Z,98952.15
2023-03-10T03:47:59.609Z,98954.13
2023-03-10T03:50:26.678Z,98951.48
2023-03-10T03:52:55.343Z,98946.37
2023-03-10T03:55:22.406Z,98943.63
2023-03-10T03:57:50.981Z,98938.88
2023-03-10T04:00:22.802Z,98938.98
2023-03-10T04:02:50.704Z,98930.98
2023-03-10T04:05:18.234Z,98930.05
2023-03-10T04:07:47.616Z,98932.73
2023-03-10T04:10:17.734Z,98932.60
2023-03-10T04:12:44.443Z,98929.36
2023-03-10T04:15:11.239Z,98925.20
2023-03-10T04:17:37.839Z,98919.23
2023-03-10T04:20:08.652Z,98915.31
2023-03-10T04:22:37.636Z,98908.71
2023-03-10T04:25:06.687Z,98901.91
2023-03-10T04:27:35.255Z,98898.02
2023-03-10T04:30:04.055Z,98889.69
2023-03-10T04:32:31.750Z,98885.77
2023-03-10T04:34:58.390Z,98882.47
2023-03-10T04:37:26.632Z,98880.04
2023-03-10T04:39:53.621Z,98880.27
2023-03-10T04:42:20.536Z,98882.09
2023-03-10T04:44:47.169Z,98882.64
2023-03-10T04:47:13.952Z,98880.59
2023-03-10T04:49:40.604Z,98878.86
2023-03-10T04:52:10.081Z,98877.06
2023-03-10T04:54:36.693Z,98875.33
2023-03-10T04:57:03.616Z,98875.18
2023-03-10T04:59:30.248Z,98874.41
2023-03-10T05:01:57.071Z,98876.55
2023-03-10T05:04:24.140Z,98868.27
2023-03-10T05:06:52.294Z,98864.61
2023-03-10T05:09:28.633Z,98867.48
2023-03-10T05:11:55.184Z,98869.08
2023-03-10T05:14:21.983Z,98864.19
2023-03-10T05:16:48.760Z,98862.71
2023-03-10T05:19:15.711Z,98861.95
2023-03-10T05:21:42.280Z,98862.37
2023-03-10T05:24:09.622Z,98860.03
2023-03-10T05:26:36.473Z,98862.57
2023-03-10T05:29:04.369Z,98860.45
2023-03-10T05:31:38.025Z,98856.59
2023-03-10T05:34:08.926Z,98855.23
2023-03-10T05:36:35.640Z,98846.79
2023-03-10T05:39:05.213Z,98841.77
2023-03-10T05:41:33.223Z,98839.18
2023-03-10T05:43:59.924Z,98837.95
2023-03-10T05:46:27.070Z,98834.52
2023-03-10T05:48:56.732Z,98835.91
2023-03-10T05:51:23.947Z,98834.96
2023-03-10T05:53:51.028Z,98834.71
2023-03-10T05:56:21.669Z,98827.23
2023-03-10T05:58:51.764Z,98825.81
2023-03-10T06:01:22.807Z,98823.05
2023-03-10T06:03:49.595Z,98819.57
2023-03-10T06:06:16.382Z,98816.07
2023-03-10T06:08:43.103Z,98809.88
2023-03-10T06:11:10.866Z,98807.46
2023-03-10T06:13:43.767Z,98806.54
2023-03-10T06:16:10.780Z,98805.79
2023-03-10T06:18:37.367Z,98804.77
2023-03-10T06:21:08.459Z,98804.02
2023-03-10T06:23:36.071Z,98803.34
2023-03-10T06:26:06.172Z,98810.54
2023-03-10T06:28:36.160Z,98812.11
2023-03-10T06:31:06.321Z,98808.02
2023-03-10T06:33:33.836Z,98810.14
2023-03-10T06:36:00.580Z,98811.23
2023-03-10T06:38:27.390Z,98814.77
2023-03-10T06:40:54.081Z,98812.85
2023-03-10T06:43:20.764Z,98807.77
2023-03-10T06:45:47.589Z,98804.17
2023-03-10T06:48:15.643Z,98804.92
2023-03-10T06:50:55.012Z,98806.48
2023-03-10T06:53:29.481Z,98807.30
2023-03-10T06:56:01.680Z,98805.53
2023-03-10T06:58:29.614Z,98800.36
2023-03-10T07:00:56.595Z,98797.95
2023-03-10T07:03:25.642Z,98796.05
2023-03-10T07:05:52.624Z,98796.02
2023-03-10T07:08:19.528Z,98789.81
2023-03-10T07:10:46.053Z,98785.20
2023-03-10T07:13:16.680Z,98776.73
2023-03-10T07:15:44.019Z,98772.70
2023-03-10T07:18:11.543Z,98762.95
2023-03-10T07:20:44.589Z,98758.16
2023-03-10T07:23:12.293Z,98754.95
2023-03-10T07:25:39.422Z,98750.36
2023-03-10T07:28:12.616Z,98746.64
2023-03-10T07:30:40.334Z,98741.22
2023-03-10T07:33:07.800Z,98741.28
2023-03-10T07:35:37.080Z,98740.13
2023-03-10T07:38:04.511Z,98738.86
2023-03-10T07:40:31.183Z,98737.48
2023-03-10T07:42:57.764Z,98740.48
2023-03-10T07:45:33.058Z,98739.91
2023-03-10T07:47:59.843Z,98738.89
2023-03-10T07:50:26.532Z,98739.16
2023-03-10T07:52:54.413Z,98735.77
2023-03-10T07:55:21.159Z,98734.49
2023-03-10T07:57:48.302Z,98733.36
2023-03-10T08:00:15.824Z,98732.94
2023-03-10T08:02:42.450Z,98729.36
2023-03-10T08:05:14.254Z,98730.41
2023-03-10T08:07:41.715Z,98728.86
2023-03-10T08:10:09.574Z,98723.77
2023-03-10T08:12:36.724Z,98722.35
2023-03-10T08:15:05.034Z,98723.84
2023-03-10T08:17:32.866Z,98723.52
2023-03-10T08:20:00.143Z,98722.55
2023-03-10T08:22:29.391Z,98725.41
2023-03-10T08:24:56.376Z,98728.26
2023-03-10T08:27:23.198Z,98723.80
2023-03-10T08:29:50.402Z,98725.39
2023-03-10T08:32:18.962Z,98728.39
2023-03-10T08:34:46.249Z,98729.35
2023-03-10T08:37:13.056Z,98729.58
2023-03-10T08:39:40.272Z,98725.90
2023-03-10T08:42:10.685Z,98724.61
2023-03-10T08:44:37.679Z,98720.60
2023-03-10T08:47:04.735Z,98714.72
2023-03-10T08:49:32.135Z,98713.48
2023-03-10T08:51:59.695Z,98710.24
2023-03-10T08:54:26.755Z,98703.14
2023-03-10T08:56:53.846Z,98696.59
2023-03-10T08:59:20.551Z,98694.77
2023-03-10T09:01:47.417Z,98690.30
2023-03-10T09:04:14.058Z,98685.70
2023-03-10T09:06:40.775Z,98680.34
2023-03-10T09:09:10.876Z,98678.58
2023-03-10T09:11:41.316Z,98677.13
2023-03-10T09:14:10.150Z,98681.95
2023-03-10T09:16:40.238Z,98682.01
2023-03-10T09:19:07.687Z,98677.97
2023-03-10T09:21:34.533Z,98673.41
2023-03-10T09:24:04.972Z,98673.10
2023-03-10T09:26:34.883Z,98671.30
2023-03-10T09:29:04.509Z,98669.95
2023-03-10T09:31:36.686Z,98667.14
2023-03-10T09:34:05.226Z,98664.04
2023-03-10T09:36:34.127Z,98669.61
2023-03-10T09:39:05.050Z,98667.44
2023-03-10T09:41:33.635Z,98667.66
2023-03-10T09:44:23.081Z,98665.48
2023-03-10T09:47:02.114Z,98662.55
2023-03-10T09:49:39.408Z,98660.22
2023-03-10T09:52:27.979Z,98655.11
2023-03-10T09:55:05.594Z,98647.38
2023-03-10T09:57:34.276Z,98645.24
2023-03-10T10:00:07.868Z,98642.11
2023-03-10T10:02:43.162Z,98637.46
2023-03-10T10:05:33.627Z,98636.71
2023-03-10T10:08:05.313Z,98630.80
2023-03-10T10:10:36.361Z,98629.37
2023-03-10T10:13:13.175Z,98621.23
2023-03-10T10:16:18.341Z,98613.98
2023-03-10T10:19:06.313Z,98606.55
2023-03-10T10:21:59.294Z,98605.27
2023-03-10T10:24:26.043Z,98600.83
2023-03-10T10:26:52.668Z,98596.54
2023-03-10T10:29:23.400Z,98592.89
2023-03-10T10:32:05.720Z,98588.68
2023-03-10T10:34:33.491Z,98582.74
2023-03-10T10:37:01.092Z,98580.04
2023-03-10T10:39:48.803Z,98574.52
2023-03-10T10:42:32.889Z,98575.48
2023-03-10T10:45:41.701Z,98573.11
2023-03-10T10:48:45.579Z,98566.38
2023-03-10T10:51:20.310Z,98560.73
2023-03-10T10:53:48.712Z,98558.65
2023-03-10T10:56:20.991Z,98553.77
2023-03-10T10:59:05.053Z,98541.72
2023-03-10T11:01:56.607Z,98539.16
2023-03-10T11:04:26.299Z,98540.09
2023-03-10T11:07:09.339Z,98537.21
2023-03-10T11:09:36.187Z,98529.00
2023-03-10T11:12:26.656Z,98527.39
2023-03-10T11:15:12.135Z,98515.73
2023-03-10T11:18:13.879Z,98510.41
2023-03-10T11:21:01.831Z,98509.83
2023-03-10T11:23:39.896Z,98509.81
2023-03-10T11:26:26.202Z,98510.40
2023-03-10T11:29:04.041Z,98502.85
2023-03-10T11:31:45.907Z,98495.95
2023-03-10T11:34:25.140Z,98488.04
2023-03-10T11:37:01.217Z,98493.61
2023-03-10T11:39:43.152Z,98486.98
2023-03-10T11:42:22.366Z,98483.52
2023-03-10T11:45:16.323Z,98476.30
2023-03-10T11:47:47.743Z,98466.25
2023-03-10T11:50:39.388Z,98462.88
2023-03-10T11:53:14.611Z,98451.92
2023-03-10T11:55:42.998Z,98450.98
2023-03-10T11:58:22.347Z,98449.07
2023-03-10T12:00:53.195Z,98445.27
2023-03-10T12:03:27.652Z,98438.70
2023-03-10T12:05:58.183Z,98432.06
2023-03-10T12:08:30.687Z,98427.62
2023-03-10T12:11:00.729Z,98423.60
2023-03-10T12:13:35.297Z,98417.08
2023-03-10T12:16:04.498Z,98411.95
2023-03-10T12:18:33.242Z,98406.89
2023-03-10T12:21:17.166Z,98404.08
2023-03-10T12:23:47.198Z,98403.30
2023-03-10T12:26:14.388Z,98396.36
2023-03-10T12:28:41.488Z,98394.57
2023-03-10T12:31:11.058Z,98384.69
2023-03-10T12:33:43.341Z,98383.23
2023-03-10T12:36:22.159Z,98380.73
2023-03-10T12:39:37.891Z,98379.17
2023-03-10T12:42:35.002Z,98377.98
2023-03-10T12:45:16.514Z,98376.06
2023-03-10T12:48:09.824Z,98376.17
2023-03-10T12:50:59.651Z,98372.55
2023-03-10T12:53:39.068Z,98367.30
2023-03-10T12:56:13.757Z,98366.24
2023-03-10T12:59:04.641Z,98369.60
2023-03-10T13:01:43.287Z,98365.68
2023-03-10T13:04:19.387Z,98365.73
2023-03-10T13:06:48.132Z,98359.25
2023-03-10T13:09:23.822Z,98359.46
2023-03-10T13:11:56.512Z,98358.26
2023-03-10T13:14:33.765Z,98353.41
2023-03-10T13:17:02.474Z,98351.58
2023-03-10T13:19:34.504Z,98347.33
2023-03-10T13:22:06.730Z,98340.17
2023-03-10T13:24:38.384Z,98339.54
2023-03-10T13:27:18.313Z,98331.92
2023-03-10T13:30:04.929Z,98326.73
2023-03-10T13:32:32.948Z,98323.96
2023-03-10T13:35:35.602Z,98320.65
2023-03-10T13:38:12.236Z,98318.92
2023-03-10T13:40:47.988Z,98315.93
2023-03-10T13:43:37.058Z,98314.25
2023-03-10T13:46:10.052Z,98307.23
2023-03-10T13:48:38.921Z,98300.73
2023-03-10T13:51:16.643Z,98296.31
2023-03-10T13:53:44.532Z,98291.96
2023-03-10T13:56:18.517Z,98287.58
2023-03-10T13:58:46.825Z,98280.59
2023-03-10T14:01:20.703Z,98273.81
2023-03-10T14:03:57.140Z,98272.47
2023-03-10T14:06:27.418Z,98273.45
2023-03-10T14:08:57.947Z,98269.49
2023-03-10T14:11:35.390Z,98269.77
2023-03-10T14:14:07.411Z,98267.66
2023-03-10T14:16:48.532Z,98266.43
2023-03-10T14:19:37.955Z,98272.80
2023-03-10T14:22:23.081Z,98268.17
2023-03-10T14:24:50.223Z,98265.84
2023-03-10T14:27:20.916Z,98261.57
2023-03-10T14:29:53.793Z,98260.83
2023-03-10T14:32:20.623Z,98259.07
2023-03-10T14:34:47.964Z,98254.73
2023-03-10T14:37:14.766Z,98247.48
2023-03-10T14:39:41.681Z,98248.20
2023-03-10T14:42:23.926Z,98241.03
2023-03-10T14:44:50.923Z,98240.11
2023-03-10T14:47:18.258Z,98242.77
2023-03-10T14:49:45.404Z,98240.29
2023-03-10T14:52:15.277Z,98240.48
2023-03-10T14:54:42.210Z,98244.73
2023-03-10T14:57:12.400Z,98244.97
2023-03-10T14:59:39.801Z,98238.58
2023-03-10T15:02:20.247Z,98239.58
2023-03-10T15:04:46.921Z,98239.19
2023-03-10T15:07:14.679Z,98237.28
2023-03-10T15:09:41.450Z,98235.55
2023-03-10T15:12:08.508Z,98232.16
2023-03-10T15:14:35.342Z,98228.72
2023-03-10T15:17:04.366Z,98221.42
2023-03-10T15:19:31.557Z,98220.02
2023-03-10T15:21:58.236Z,98215.20
2023-03-10T15:24:24.876Z,98209.05
2023-03-10T15:26:51.549Z,98206.95
2023-03-10T15:29:19.801Z,98206.55
2023-03-10T15:31:46.888Z,98206.01
2023-03-10T15:34:13.601Z,98207.70
2023-03-10T15:36:43.068Z,98211.25
2023-03-10T15:39:11.069Z,98213.84
2023-03-10T15:41:40.772Z,98211.05
2023-03-10T15:44:07.931Z,98213.03
2023-03-10T15:46:34.697Z,98215.29
2023-03-10T15:49:03.254Z,98219.69
2023-03-10T15:51:31.160Z,98215.02
2023-03-10T15:53:58.371Z,98213.02
2023-03-10T15:56:25.614Z,98208.66
2023-03-10T15:58:52.419Z,98210.19
2023-03-10T16:01:20.073Z,98212.22
2023-03-10T16:03:48.348Z,98215.73
2023-03-10T16:06:15.318Z,98211.27
2023-03-10T16:08:42.715Z,98211.50
2023-03-10T16:11:20.002Z,98210.34
2023-03-10T16:13:48.880Z,98209.79
2023-03-10T16:16:17.920Z,98211.23
2023-03-10T16:18:46.525Z,98212.48
2023-03-10T16:21:17.842Z,98212.76
2023-03-10T16:23:45.376Z,98218.36
2023-03-10T16:26:18.895Z,98218.66
2023-03-10T16:28:49.805Z,98222.38
2023-03-10T16:31:19.120Z,98221.67
2023-03-10T16:33:49.107Z,98214.27
2023-03-10T16:36:24.071Z,98208.77
2023-03-10T16:38:55.262Z,98214.57
2023-03-10T16:41:23.155Z,98216.55
2023-03-10T16:43:49.928Z,98212.70
2023-03-10T16:46:29.333Z,98213.11
2023-03-10T16:48:57.387Z,98210.35
2023-03-10T16:51:28.008Z,98212.11
2023-03-10T16:53:58.868Z,98202.89
2023-03-10T16:56:28.489Z,98201.73
2023-03-10T16:58:55.857Z,98202.48
2023-03-10T17:01:23.505Z,98197.27
2023-03-10T17:03:51.685Z,98196.40
2023-03-10T17:06:23.551Z,98195.05
2023-03-10T17:08:51.461Z,98194.82
2023-03-10T17:11:25.073Z,98195.05
2023-03-10T17:13:54.420Z,98192.10
2023-03-10T17:16:23.782Z,98185.98
2023-03-10T17:18:50.696Z,98187.06
2023-03-10T17:21:20.730Z,98183.38
2023-03-10T17:23:48.281Z,98180.05
2023-03-10T17:26:17.095Z,98173.77
2023-03-10T17:28:46.592Z,98167.33
2023-03-10T17:31:16.516Z,98167.82
2023-03-10T17:33:44.282Z,98169.44
2023-03-10T17:36:13.550Z,98166.92
2023-03-10T17:38:41.423Z,98172.08
2023-03-10T17:41:10.960Z,98170.94
2023-03-10T17:43:37.996Z,98168.05
2023-03-10T17:46:07.836Z,98167.85
2023-03-10T17:48:35.454Z,98165.55
2023-03-10T17:51:03.211Z,98160.89
2023-03-10T17:53:30.772Z,98160.02
2023-03-10T17:56:01.707Z,98158.15
2023-03-10T17:58:29.634Z,98153.23
2023-03-10T18:00:56.341Z,98155.42
2023-03-10T18:03:23.074Z,98154.73
2023-03-10T18:05:52.714Z,98158.06
2023-03-10T18:08:22.640Z,98160.05
2023-03-10T18:10:59.268Z,98156.91
2023-03-10T18:13:25.922Z,98159.80
2023-03-10T18:15:52.674Z,98160.55
2023-03-10T18:18:19.980Z,98166.39
2023-03-10T18:20:47.079Z,98161.70
2023-03-10T18:23:13.835Z,98157.80
2023-03-10T18:25:45.243Z,98161.06
2023-03-10T18:28:16.102Z,98156.55
2023-03-10T18:30:44.792Z,98152.10
2023-03-10T18:33:14.683Z,98151.56
2023-03-10T18:35:58.985Z,98152.16
2023-03-10T18:38:36.401Z,98151.06
2023-03-10T18:41:07.254Z,98146.16
2023-03-10T18:43:35.348Z,98140.95
2023-03-10T18:46:04.603Z,98139.69
2023-03-10T18:48:36.264Z,98135.75
2023-03-10T18:51:07.725Z,98136.25
2023-03-10T18:53:47.366Z,98131.93
2023-03-10T18:56:13.997Z,98128.64
2023-03-10T18:58:44.391Z,98124.10
2023-03-10T19:01:13.261Z,98120.40
2023-03-10T19:03:40.896Z,98120.15
2023-03-10T19:06:08.932Z,98115.45
2023-03-10T19:08:40.892Z,98112.48
2023-03-10T19:11:07.829Z,98105.23
2023-03-10T19:13:44.723Z,98097.74
2023-03-10T19:16:25.824Z,98091.69
2023-03-10T19:19:25.983Z,98086.36
2023-03-10T19:22:00.085Z,98083.20
2023-03-10T19:24:26.998Z,98082.54
2023-03-10T19:27:11.335Z,98076.48
2023-03-10T19:30:02.554Z,98073.30
2023-03-10T19:32:32.099Z,98067.45
2023-03-10T19:35:01.316Z,98071.48
2023-03-10T19:37:29.521Z,98073.03
2023-03-10T19:39:56.625Z,98070.03
2023-03-10T19:42:23.414Z,98067.91
2023-03-10T19:44:49.950Z,98069.77
2023-03-10T19:47:27.023Z,98066.45
2023-03-10T19:49:55.919Z,98065.29
2023-03-10T19:52:23.415Z,98067.46
2023-03-10T19:54:52.386Z,98065.18
2023-03-10T19:57:19.179Z,98063.28
2023-03-10T19:59:45.995Z,98058.49
2023-03-10T20:02:19.134Z,98054.56
2023-03-10T20:04:47.710Z,98050.80
2023-03-10T20:07:14.565Z,98047.50
2023-03-10T20:09:41.320Z,98044.70
2023-03-10T20:12:08.282Z,98043.62
2023-03-10T20:14:36.361Z,98040.00
2023-03-10T20:17:08.748Z,98034.02
2023-03-10T20:19:35.566Z,98028.38
2023-03-10T20:22:31.277Z,98026.33
2023-03-10T20:24:58.035Z,98022.00
2023-03-10T20:27:32.782Z,98021.27
2023-03-10T20:29:59.578Z,98018.49
2023-03-10T20:32:26.543Z,98018.30
2023-03-10T20:34:53.410Z,98011.00
2023-03-10T20:37:20.160Z,98010.73
2023-03-10T20:39:46.821Z,98017.08
2023-03-10T20:42:13.456Z,98017.57
2023-03-10T20:44:40.202Z,98013.87
2023-03-10T20:47:10.183Z,98014.25
2023-03-10T20:49:36.966Z,98014.80
2023-03-10T20:52:05.702Z,98018.52
2023-03-10T20:54:32.563Z,98018.39
2023-03-10T20:56:59.379Z,98018.85
2023-03-10T20:59:26.258Z,98011.42
2023-03-10T21:01:53.232Z,98010.91
2023-03-10T21:04:20.539Z,98011.05
2023-03-10T21:06:47.356Z,98005.56
2023-03-10T21:09:14.638Z,97999.59
2023-03-10T21:11:44.810Z,97996.34
2023-03-10T21:14:11.640Z,97996.66
2023-03-10T21:16:41.355Z,97995.86
2023-03-10T21:19:13.943Z,97998.02
2023-03-10T21:21:40.874Z,97995.09
2023-03-10T21:24:08.144Z,97993.89
2023-03-10T21:26:35.536Z,97992.45
2023-03-10T21:29:03.621Z,97992.81
2023-03-10T21:31:38.860Z,97994.22
2023-03-10T21:34:08.497Z,97997.83
2023-03-10T21:36:43.224Z,97997.80
2023-03-10T21:39:12.868Z,97996.84
2023-03-10T21:41:39.637Z,97996.65
2023-03-10T21:44:09.901Z,97995.67
2023-03-10T21:47:13.546Z,97993.20
2023-03-10T21:49:55.140Z,97991.83
2023-03-10T21:52:38.089Z,97989.05
2023-03-10T21:55:41.222Z,97980.59
2023-03-10T21:58:21.236Z,97969.77
2023-03-10T22:01:14.424Z,97971.67
2023-03-10T22:04:02.011Z,97973.36
2023-03-10T22:06:41.760Z,97965.84
2023-03-10T22:09:08.537Z,97965.36
2023-03-10T22:11:38.045Z,97964.89
2023-03-10T22:14:05.799Z,97959.09
2023-03-10T22:16:32.636Z,97957.65
2023-03-10T22:18:59.304Z,97958.55
2023-03-10T22:21:26.054Z,97957.88
2023-03-10T22:23:53.151Z,97949.40
2023-03-10T22:26:19.874Z,97944.33
2023-03-10T22:28:46.610Z,97938.83
2023-03-10T22:31:13.477Z,97936.75
2023-03-10T22:33:40.268Z,97925.44
2023-03-10T22:36:11.156Z,97919.64
2023-03-10T22:38:38.550Z,97917.89
2023-03-10T22:41:10.555Z,97918.21
2023-03-10T22:43:37.969Z,97921.02
2023-03-10T22:46:16.593Z,97923.14
2023-03-10T22:48:43.712Z,97918.07
2023-03-10T22:51:15.160Z,97917.11
2023-03-10T22:53:48.725Z,97910.23
2023-03-10T22:56:15.624Z,97908.73
2023-03-10T22:58:42.719Z,97908.09
2023-03-10T23:01:09.489Z,97909.47
2023-03-10T23:03:36.223Z,97909.70
2023-03-10T23:06:06.110Z,97909.73
2023-03-10T23:08:35.513Z,97907.40
2023-03-10T23:11:03.046Z,97905.85
2023-03-10T23:13:29.770Z,97902.11
2023-03-10T23:15:59.082Z,97900.59
2023-03-10T23:18:25.866Z,97900.68
2023-03-10T23:20:52.554Z,97896.65
2023-03-10T23:23:19.352Z,97895.99
2023-03-10T23:25:50.293Z,97896.90
2023-03-10T23:28:19.100Z,97894.90
2023-03-10T23:30:47.580Z,97887.80
2023-03-10T23:33:18.108Z,97879.92
2023-03-10T23:35:53.159Z,97874.91
2023-03-10T23:38:21.826Z,97874.77
2023-03-10T23:40:50.126Z,97869.16
2023-03-10T23:43:17.116Z,97870.66
2023-03-10T23:45:46.469Z,97865.13
2023-03-10T23:48:16.106Z,97863.56
2023-03-10T23:50:44.756Z,97859.49
2023-03-10T23:53:13.191Z,97860.80
2023-03-10T23:55:44.456Z,97864.05
2023-03-10T23:58:12.207Z,97861.83
